sensor_id;sensor_type;location;lat;lon;timestamp;temperature;humidity
8792;DHT22;4432;50.890;4.744;2022-12-07T00:01:38;5.00;99.90
8792;DHT22;4432;50.890;4.744;2022-12-07T00:04:06;4.90;99.90
8792;DHT22;4432;50.890;4.744;2022-12-07T00:06:37;4.80;99.90
8792;DHT22;4432;50.890;4.744;2022-12-07T00:09:05;4.80;99.90
8792;DHT22;4432;50.890;4.744;2022-12-07T00:11:31;4.80;99.90
8792;DHT22;4432;50.890;4.744;2022-12-07T00:14:00;4.70;99.90
8792;DHT22;4432;50.890;4.744;2022-12-07T00:16:29;4.70;99.90
8792;DHT22;4432;50.890;4.744;2022-12-07T00:18:55;4.70;99.90
8792;DHT22;4432;50.890;4.744;2022-12-07T00:21:24;4.70;99.90
8792;DHT22;4432;50.890;4.744;2022-12-07T00:23:51;4.70;99.90
8792;DHT22;4432;50.890;4.744;2022-12-07T00:26:23;4.80;99.90
8792;DHT22;4432;50.890;4.744;2022-12-07T00:28:55;4.80;99.90
8792;DHT22;4432;50.890;4.744;2022-12-07T00:31:23;4.80;99.90
8792;DHT22;4432;50.890;4.744;2022-12-07T00:33:50;4.80;99.90
8792;DHT22;4432;50.890;4.744;2022-12-07T00:36:18;4.80;99.90
8792;DHT22;4432;50.890;4.744;2022-12-07T00:38:44;4.70;99.90
8792;DHT22;4432;50.890;4.744;2022-12-07T00:41:15;4.60;99.90
8792;DHT22;4432;50.890;4.744;2022-12-07T00:43:43;4.60;99.90
8792;DHT22;4432;50.890;4.744;2022-12-07T00:46:09;4.50;99.90
8792;DHT22;4432;50.890;4.744;2022-12-07T00:48:35;4.50;99.90
8792;DHT22;4432;50.890;4.744;2022-12-07T00:51:02;4.50;99.90
8792;DHT22;4432;50.890;4.744;2022-12-07T00:53:28;4.50;99.90
8792;DHT22;4432;50.890;4.744;2022-12-07T00:55:54;4.60;99.90
8792;DHT22;4432;50.890;4.744;2022-12-07T00:58:22;4.60;99.90
8792;DHT22;4432;50.890;4.744;2022-12-07T01:00:48;4.60;99.90
8792;DHT22;4432;50.890;4.744;2022-12-07T01:03:15;4.60;99.90
8792;DHT22;4432;50.890;4.744;2022-12-07T01:05:52;4.60;99.90
8792;DHT22;4432;50.890;4.744;2022-12-07T01:08:18;4.60;99.90
8792;DHT22;4432;50.890;4.744;2022-12-07T01:10:44;4.60;99.90
8792;DHT22;4432;50.890;4.744;2022-12-07T01:13:10;4.60;99.90
8792;DHT22;4432;50.890;4.744;2022-12-07T01:15:45;4.60;99.90
8792;DHT22;4432;50.890;4.744;2022-12-07T01:18:11;4.60;99.90
8792;DHT22;4432;50.890;4.744;2022-12-07T01:20:39;4.60;99.90
8792;DHT22;4432;50.890;4.744;2022-12-07T01:23:05;4.50;99.90
8792;DHT22;4432;50.890;4.744;2022-12-07T01:25:31;4.40;99.90
8792;DHT22;4432;50.890;4.744;2022-12-07T01:27:57;4.40;99.90
8792;DHT22;4432;50.890;4.744;2022-12-07T01:30:23;4.40;99.90
8792;DHT22;4432;50.890;4.744;2022-12-07T01:32:49;4.40;99.90
8792;DHT22;4432;50.890;4.744;2022-12-07T01:35:15;4.40;99.90
8792;DHT22;4432;50.890;4.744;2022-12-07T01:37:41;4.40;99.90
8792;DHT22;4432;50.890;4.744;2022-12-07T01:40:07;4.40;99.90
8792;DHT22;4432;50.890;4.744;2022-12-07T01:42:34;4.50;99.90
8792;DHT22;4432;50.890;4.744;2022-12-07T01:45:34;4.50;99.90
8792;DHT22;4432;50.890;4.744;2022-12-07T01:48:02;4.60;99.90
8792;DHT22;4432;50.890;4.744;2022-12-07T01:50:29;4.70;99.90
8792;DHT22;4432;50.890;4.744;2022-12-07T01:52:59;4.70;99.90
8792;DHT22;4432;50.890;4.744;2022-12-07T01:55:26;4.80;99.90
8792;DHT22;4432;50.890;4.744;2022-12-07T01:57:53;4.80;99.90
8792;DHT22;4432;50.890;4.744;2022-12-07T02:00:20;4.80;99.90
8792;DHT22;4432;50.890;4.744;2022-12-07T02:02:51;4.80;99.90
8792;DHT22;4432;50.890;4.744;2022-12-07T02:05:18;4.80;99.90
8792;DHT22;4432;50.890;4.744;2022-12-07T02:07:47;4.80;99.90
8792;DHT22;4432;50.890;4.744;2022-12-07T02:13:13;4.90;99.90
8792;DHT22;4432;50.890;4.744;2022-12-07T02:30:10;4.80;99.90
8792;DHT22;4432;50.890;4.744;2022-12-07T02:38:16;4.60;99.90
8792;DHT22;4432;50.890;4.744;2022-12-07T02:41:02;4.50;99.90
8792;DHT22;4432;50.890;4.744;2022-12-07T02:43:53;4.50;99.90
8792;DHT22;4432;50.890;4.744;2022-12-07T02:46:28;4.50;99.90
8792;DHT22;4432;50.890;4.744;2022-12-07T02:48:55;4.50;99.90
8792;DHT22;4432;50.890;4.744;2022-12-07T02:51:22;4.60;99.90
8792;DHT22;4432;50.890;4.744;2022-12-07T02:53:48;4.60;99.90
8792;DHT22;4432;50.890;4.744;2022-12-07T02:56:43;4.60;99.90
8792;DHT22;4432;50.890;4.744;2022-12-07T03:07:21;4.70;99.90
8792;DHT22;4432;50.890;4.744;2022-12-07T03:18:05;4.60;99.90
8792;DHT22;4432;50.890;4.744;2022-12-07T03:20:35;4.60;99.90
8792;DHT22;4432;50.890;4.744;2022-12-07T03:23:05;4.60;99.90
8792;DHT22;4432;50.890;4.744;2022-12-07T03:25:32;4.60;99.90
8792;DHT22;4432;50.890;4.744;2022-12-07T03:28:03;4.60;99.90
8792;DHT22;4432;50.890;4.744;2022-12-07T03:31:23;4.60;99.90
8792;DHT22;4432;50.890;4.744;2022-12-07T03:36:13;4.40;99.90
8792;DHT22;4432;50.890;4.744;2022-12-07T03:38:42;4.40;99.90
8792;DHT22;4432;50.890;4.744;2022-12-07T03:41:23;4.40;99.90
8792;DHT22;4432;50.890;4.744;2022-12-07T03:43:51;4.40;99.90
8792;DHT22;4432;50.890;4.744;2022-12-07T03:51:51;4.50;99.90
8792;DHT22;4432;50.890;4.744;2022-12-07T03:57:02;4.50;99.90
8792;DHT22;4432;50.890;4.744;2022-12-07T03:59:28;4.60;99.90
8792;DHT22;4432;50.890;4.744;2022-12-07T04:02:01;4.60;99.90
8792;DHT22;4432;50.890;4.744;2022-12-07T04:04:28;4.60;99.90
8792;DHT22;4432;50.890;4.744;2022-12-07T04:06:54;4.60;99.90
8792;DHT22;4432;50.890;4.744;2022-12-07T04:09:20;4.50;99.90
8792;DHT22;4432;50.890;4.744;2022-12-07T04:11:46;4.50;99.90
8792;DHT22;4432;50.890;4.744;2022-12-07T04:14:12;4.50;99.90
8792;DHT22;4432;50.890;4.744;2022-12-07T04:16:48;4.30;99.90
8792;DHT22;4432;50.890;4.744;2022-12-07T04:19:15;4.20;99.90
8792;DHT22;4432;50.890;4.744;2022-12-07T04:21:41;4.00;99.90
8792;DHT22;4432;50.890;4.744;2022-12-07T04:24:07;3.80;99.90
8792;DHT22;4432;50.890;4.744;2022-12-07T04:26:33;3.70;99.90
8792;DHT22;4432;50.890;4.744;2022-12-07T04:28:59;3.60;99.90
8792;DHT22;4432;50.890;4.744;2022-12-07T04:31:25;3.50;99.90
8792;DHT22;4432;50.890;4.744;2022-12-07T04:33:51;3.40;99.90
8792;DHT22;4432;50.890;4.744;2022-12-07T04:36:16;3.30;99.90
8792;DHT22;4432;50.890;4.744;2022-12-07T04:38:42;3.20;99.90
8792;DHT22;4432;50.890;4.744;2022-12-07T04:41:09;3.20;99.90
8792;DHT22;4432;50.890;4.744;2022-12-07T04:43:35;3.20;99.90
8792;DHT22;4432;50.890;4.744;2022-12-07T04:46:01;3.20;99.90
8792;DHT22;4432;50.890;4.744;2022-12-07T04:48:28;3.20;99.90
8792;DHT22;4432;50.890;4.744;2022-12-07T04:50:54;3.10;99.90
8792;DHT22;4432;50.890;4.744;2022-12-07T04:53:20;3.20;99.90
8792;DHT22;4432;50.890;4.744;2022-12-07T04:55:46;3.20;99.90
8792;DHT22;4432;50.890;4.744;2022-12-07T04:58:13;3.20;99.90
8792;DHT22;4432;50.890;4.744;2022-12-07T05:00:39;3.20;99.90
8792;DHT22;4432;50.890;4.744;2022-12-07T05:03:05;3.20;99.90
8792;DHT22;4432;50.890;4.744;2022-12-07T05:05:31;3.20;99.90
8792;DHT22;4432;50.890;4.744;2022-12-07T05:07:57;3.10;99.90
8792;DHT22;4432;50.890;4.744;2022-12-07T05:10:23;3.10;99.90
8792;DHT22;4432;50.890;4.744;2022-12-07T05:12:49;3.10;99.90
8792;DHT22;4432;50.890;4.744;2022-12-07T05:15:15;3.10;99.90
8792;DHT22;4432;50.890;4.744;2022-12-07T05:17:41;3.10;99.90
8792;DHT22;4432;50.890;4.744;2022-12-07T05:20:08;3.10;99.90
8792;DHT22;4432;50.890;4.744;2022-12-07T05:22:34;3.10;99.90
8792;DHT22;4432;50.890;4.744;2022-12-07T05:25:00;3.10;99.90
8792;DHT22;4432;50.890;4.744;2022-12-07T05:27:26;3.10;99.90
8792;DHT22;4432;50.890;4.744;2022-12-07T05:29:53;3.20;99.90
8792;DHT22;4432;50.890;4.744;2022-12-07T05:32:18;3.30;99.90
8792;DHT22;4432;50.890;4.744;2022-12-07T05:34:44;3.30;99.90
8792;DHT22;4432;50.890;4.744;2022-12-07T05:37:10;3.40;99.90
8792;DHT22;4432;50.890;4.744;2022-12-07T05:39:36;3.50;99.90
8792;DHT22;4432;50.890;4.744;2022-12-07T05:42:03;3.60;99.90
8792;DHT22;4432;50.890;4.744;2022-12-07T05:44:43;3.70;99.90
8792;DHT22;4432;50.890;4.744;2022-12-07T05:47:10;3.70;99.90
8792;DHT22;4432;50.890;4.744;2022-12-07T05:49:36;3.70;99.90
8792;DHT22;4432;50.890;4.744;2022-12-07T05:52:02;3.70;99.90
8792;DHT22;4432;50.890;4.744;2022-12-07T05:54:28;3.70;99.90
8792;DHT22;4432;50.890;4.744;2022-12-07T05:56:54;3.70;99.90
8792;DHT22;4432;50.890;4.744;2022-12-07T05:59:21;3.70;99.90
8792;DHT22;4432;50.890;4.744;2022-12-07T06:01:55;3.80;99.90
8792;DHT22;4432;50.890;4.744;2022-12-07T06:04:23;3.70;99.90
8792;DHT22;4432;50.890;4.744;2022-12-07T06:06:50;3.60;99.90
8792;DHT22;4432;50.890;4.744;2022-12-07T06:09:17;3.50;99.90
8792;DHT22;4432;50.890;4.744;2022-12-07T06:11:46;3.50;99.90
8792;DHT22;4432;50.890;4.744;2022-12-07T06:14:31;3.50;99.90
8792;DHT22;4432;50.890;4.744;2022-12-07T06:16:57;3.50;99.90
8792;DHT22;4432;50.890;4.744;2022-12-07T06:19:23;3.50;99.90
8792;DHT22;4432;50.890;4.744;2022-12-07T06:21:49;3.40;99.90
8792;DHT22;4432;50.890;4.744;2022-12-07T06:24:16;3.50;99.90
8792;DHT22;4432;50.890;4.744;2022-12-07T06:26:42;3.50;99.90
8792;DHT22;4432;50.890;4.744;2022-12-07T06:29:08;3.60;99.90
8792;DHT22;4432;50.890;4.744;2022-12-07T06:31:35;3.50;99.90
8792;DHT22;4432;50.890;4.744;2022-12-07T06:34:07;3.50;99.90
8792;DHT22;4432;50.890;4.744;2022-12-07T06:36:34;3.50;99.90
8792;DHT22;4432;50.890;4.744;2022-12-07T06:39:00;3.50;99.90
8792;DHT22;4432;50.890;4.744;2022-12-07T06:41:26;3.60;99.90
8792;DHT22;4432;50.890;4.744;2022-12-07T06:43:52;3.60;99.90
8792;DHT22;4432;50.890;4.744;2022-12-07T06:46:18;3.70;99.90
8792;DHT22;4432;50.890;4.744;2022-12-07T06:48:44;3.70;99.90
8792;DHT22;4432;50.890;4.744;2022-12-07T06:51:10;3.70;99.90
8792;DHT22;4432;50.890;4.744;2022-12-07T06:53:37;3.70;99.90
8792;DHT22;4432;50.890;4.744;2022-12-07T06:56:03;3.70;99.90
8792;DHT22;4432;50.890;4.744;2022-12-07T06:58:30;3.70;99.90
8792;DHT22;4432;50.890;4.744;2022-12-07T07:00:56;3.70;99.90
8792;DHT22;4432;50.890;4.744;2022-12-07T07:03:22;3.70;99.90
8792;DHT22;4432;50.890;4.744;2022-12-07T07:05:48;3.60;99.90
8792;DHT22;4432;50.890;4.744;2022-12-07T07:08:14;3.50;99.90
8792;DHT22;4432;50.890;4.744;2022-12-07T07:10:40;3.50;99.90
8792;DHT22;4432;50.890;4.744;2022-12-07T07:13:07;3.50;99.90
8792;DHT22;4432;50.890;4.744;2022-12-07T07:15:37;3.50;99.90
8792;DHT22;4432;50.890;4.744;2022-12-07T07:18:06;3.50;99.90
8792;DHT22;4432;50.890;4.744;2022-12-07T07:20:32;3.60;99.90
8792;DHT22;4432;50.890;4.744;2022-12-07T07:22:58;3.60;99.90
8792;DHT22;4432;50.890;4.744;2022-12-07T07:25:24;3.60;99.90
8792;DHT22;4432;50.890;4.744;2022-12-07T07:27:50;3.60;99.90
8792;DHT22;4432;50.890;4.744;2022-12-07T07:30:17;3.70;99.90
8792;DHT22;4432;50.890;4.744;2022-12-07T07:32:43;3.70;99.90
8792;DHT22;4432;50.890;4.744;2022-12-07T07:35:09;3.70;99.90
8792;DHT22;4432;50.890;4.744;2022-12-07T07:37:34;3.80;99.90
8792;DHT22;4432;50.890;4.744;2022-12-07T07:40:00;3.80;99.90
8792;DHT22;4432;50.890;4.744;2022-12-07T07:42:26;3.80;99.90
8792;DHT22;4432;50.890;4.744;2022-12-07T07:44:52;3.80;99.90
8792;DHT22;4432;50.890;4.744;2022-12-07T07:47:18;3.80;99.90
8792;DHT22;4432;50.890;4.744;2022-12-07T07:49:43;3.80;99.90
8792;DHT22;4432;50.890;4.744;2022-12-07T07:52:09;3.70;99.90
8792;DHT22;4432;50.890;4.744;2022-12-07T07:54:35;3.60;99.90
8792;DHT22;4432;50.890;4.744;2022-12-07T07:57:01;3.50;99.90
8792;DHT22;4432;50.890;4.744;2022-12-07T07:59:27;3.40;99.90
8792;DHT22;4432;50.890;4.744;2022-12-07T08:01:53;3.40;99.90
8792;DHT22;4432;50.890;4.744;2022-12-07T08:04:21;3.30;99.90
8792;DHT22;4432;50.890;4.744;2022-12-07T08:06:47;3.30;99.90
8792;DHT22;4432;50.890;4.744;2022-12-07T08:09:13;3.20;99.90
8792;DHT22;4432;50.890;4.744;2022-12-07T08:11:39;3.10;99.90
8792;DHT22;4432;50.890;4.744;2022-12-07T08:14:05;3.10;99.90
8792;DHT22;4432;50.890;4.744;2022-12-07T08:16:30;3.00;99.90
8792;DHT22;4432;50.890;4.744;2022-12-07T08:18:56;3.00;99.90
8792;DHT22;4432;50.890;4.744;2022-12-07T08:21:22;2.90;99.90
8792;DHT22;4432;50.890;4.744;2022-12-07T08:23:47;2.90;99.90
8792;DHT22;4432;50.890;4.744;2022-12-07T08:26:15;2.90;99.90
8792;DHT22;4432;50.890;4.744;2022-12-07T08:28:41;3.00;99.90
8792;DHT22;4432;50.890;4.744;2022-12-07T08:31:14;3.00;99.90
8792;DHT22;4432;50.890;4.744;2022-12-07T08:33:41;3.20;99.90
8792;DHT22;4432;50.890;4.744;2022-12-07T08:36:11;3.60;99.90
8792;DHT22;4432;50.890;4.744;2022-12-07T08:38:38;3.90;99.90
8792;DHT22;4432;50.890;4.744;2022-12-07T08:41:04;4.10;99.90
8792;DHT22;4432;50.890;4.744;2022-12-07T08:43:30;4.30;99.90
8792;DHT22;4432;50.890;4.744;2022-12-07T08:48:38;5.00;99.90
8792;DHT22;4432;50.890;4.744;2022-12-07T08:51:05;5.30;99.90
8792;DHT22;4432;50.890;4.744;2022-12-07T08:53:31;5.60;99.90
8792;DHT22;4432;50.890;4.744;2022-12-07T08:55:58;5.60;99.90
8792;DHT22;4432;50.890;4.744;2022-12-07T08:58:25;5.60;99.90
8792;DHT22;4432;50.890;4.744;2022-12-07T09:00:51;5.70;99.90
8792;DHT22;4432;50.890;4.744;2022-12-07T09:03:16;5.60;99.90
8792;DHT22;4432;50.890;4.744;2022-12-07T09:05:42;5.60;99.90
8792;DHT22;4432;50.890;4.744;2022-12-07T09:08:08;5.70;99.90
8792;DHT22;4432;50.890;4.744;2022-12-07T09:10:34;5.80;99.90
8792;DHT22;4432;50.890;4.744;2022-12-07T09:13:00;5.80;99.90
8792;DHT22;4432;50.890;4.744;2022-12-07T09:15:30;5.80;99.90
8792;DHT22;4432;50.890;4.744;2022-12-07T09:17:56;5.80;99.90
8792;DHT22;4432;50.890;4.744;2022-12-07T09:20:23;5.70;99.90
8792;DHT22;4432;50.890;4.744;2022-12-07T09:22:48;5.80;99.90
8792;DHT22;4432;50.890;4.744;2022-12-07T09:25:14;5.90;99.90
8792;DHT22;4432;50.890;4.744;2022-12-07T09:27:41;5.90;99.90
8792;DHT22;4432;50.890;4.744;2022-12-07T09:30:08;6.10;99.90
8792;DHT22;4432;50.890;4.744;2022-12-07T09:32:34;6.10;99.90
8792;DHT22;4432;50.890;4.744;2022-12-07T09:35:00;6.10;99.90
8792;DHT22;4432;50.890;4.744;2022-12-07T09:37:25;6.10;99.90
8792;DHT22;4432;50.890;4.744;2022-12-07T09:39:51;6.00;99.90
8792;DHT22;4432;50.890;4.744;2022-12-07T09:44:55;5.80;99.90
8792;DHT22;4432;50.890;4.744;2022-12-07T09:47:21;6.00;99.90
8792;DHT22;4432;50.890;4.744;2022-12-07T09:49:47;6.10;99.90
8792;DHT22;4432;50.890;4.744;2022-12-07T09:52:20;6.30;99.90
8792;DHT22;4432;50.890;4.744;2022-12-07T09:54:48;6.50;99.90
8792;DHT22;4432;50.890;4.744;2022-12-07T09:57:15;6.70;99.90
8792;DHT22;4432;50.890;4.744;2022-12-07T09:59:41;7.00;99.90
8792;DHT22;4432;50.890;4.744;2022-12-07T10:02:24;6.90;99.90
8792;DHT22;4432;50.890;4.744;2022-12-07T10:04:50;7.00;99.90
8792;DHT22;4432;50.890;4.744;2022-12-07T10:07:17;7.10;99.90
8792;DHT22;4432;50.890;4.744;2022-12-07T10:09:44;7.00;99.90
8792;DHT22;4432;50.890;4.744;2022-12-07T10:12:11;7.10;99.90
8792;DHT22;4432;50.890;4.744;2022-12-07T10:14:40;7.00;99.90
8792;DHT22;4432;50.890;4.744;2022-12-07T10:17:33;7.20;99.90
8792;DHT22;4432;50.890;4.744;2022-12-07T10:23:04;7.40;99.90
8792;DHT22;4432;50.890;4.744;2022-12-07T10:25:35;7.40;99.90
8792;DHT22;4432;50.890;4.744;2022-12-07T10:30:59;7.50;99.90
8792;DHT22;4432;50.890;4.744;2022-12-07T10:33:32;7.60;99.90
8792;DHT22;4432;50.890;4.744;2022-12-07T10:36:00;7.60;99.90
8792;DHT22;4432;50.890;4.744;2022-12-07T10:38:28;7.70;99.90
8792;DHT22;4432;50.890;4.744;2022-12-07T10:41:05;7.70;99.90
8792;DHT22;4432;50.890;4.744;2022-12-07T10:43:31;7.80;99.90
8792;DHT22;4432;50.890;4.744;2022-12-07T10:48:43;8.20;99.90
8792;DHT22;4432;50.890;4.744;2022-12-07T11:01:51;8.30;99.90
8792;DHT22;4432;50.890;4.744;2022-12-07T11:04:50;8.20;99.90
8792;DHT22;4432;50.890;4.744;2022-12-07T11:10:38;8.20;99.90
8792;DHT22;4432;50.890;4.744;2022-12-07T11:13:25;8.20;99.90
8792;DHT22;4432;50.890;4.744;2022-12-07T11:18:50;8.00;99.90
8792;DHT22;4432;50.890;4.744;2022-12-07T11:21:31;7.70;99.90
8792;DHT22;4432;50.890;4.744;2022-12-07T11:24:10;7.70;99.90
8792;DHT22;4432;50.890;4.744;2022-12-07T11:26:59;7.70;99.90
8792;DHT22;4432;50.890;4.744;2022-12-07T11:37:32;7.70;99.90
8792;DHT22;4432;50.890;4.744;2022-12-07T11:45:42;8.00;99.90
8792;DHT22;4432;50.890;4.744;2022-12-07T11:50:51;8.20;99.90
8792;DHT22;4432;50.890;4.744;2022-12-07T11:55:49;8.00;99.90
8792;DHT22;4432;50.890;4.744;2022-12-07T12:03:52;8.30;99.90
8792;DHT22;4432;50.890;4.744;2022-12-07T12:06:19;8.20;99.90
8792;DHT22;4432;50.890;4.744;2022-12-07T12:25:57;8.10;99.90
8792;DHT22;4432;50.890;4.744;2022-12-07T12:31:13;7.90;99.90
8792;DHT22;4432;50.890;4.744;2022-12-07T12:33:44;7.90;99.90
8792;DHT22;4432;50.890;4.744;2022-12-07T12:36:42;7.90;99.90
8792;DHT22;4432;50.890;4.744;2022-12-07T12:51:49;7.70;99.90
8792;DHT22;4432;50.890;4.744;2022-12-07T12:54:24;7.80;99.90
8792;DHT22;4432;50.890;4.744;2022-12-07T12:57:29;7.70;99.90
8792;DHT22;4432;50.890;4.744;2022-12-07T13:00:01;7.80;99.90
8792;DHT22;4432;50.890;4.744;2022-12-07T13:02:46;7.70;99.90
8792;DHT22;4432;50.890;4.744;2022-12-07T13:10:32;7.90;99.90
8792;DHT22;4432;50.890;4.744;2022-12-07T13:15:41;8.10;99.90
8792;DHT22;4432;50.890;4.744;2022-12-07T13:20:52;8.50;99.90
8792;DHT22;4432;50.890;4.744;2022-12-07T13:23:37;8.70;99.90
8792;DHT22;4432;50.890;4.744;2022-12-07T13:31:45;8.70;99.90
8792;DHT22;4432;50.890;4.744;2022-12-07T13:34:38;8.80;99.90
8792;DHT22;4432;50.890;4.744;2022-12-07T13:37:27;8.80;99.90
8792;DHT22;4432;50.890;4.744;2022-12-07T13:39:55;8.70;99.90
8792;DHT22;4432;50.890;4.744;2022-12-07T13:42:27;8.70;99.90
8792;DHT22;4432;50.890;4.744;2022-12-07T13:44:54;8.60;99.90
8792;DHT22;4432;50.890;4.744;2022-12-07T13:49:55;8.30;99.90
8792;DHT22;4432;50.890;4.744;2022-12-07T13:52:28;8.20;99.90
8792;DHT22;4432;50.890;4.744;2022-12-07T13:55:13;8.00;99.90
8792;DHT22;4432;50.890;4.744;2022-12-07T13:57:40;7.90;99.90
8792;DHT22;4432;50.890;4.744;2022-12-07T14:00:16;7.90;99.90
8792;DHT22;4432;50.890;4.744;2022-12-07T14:03:20;7.90;99.90
8792;DHT22;4432;50.890;4.744;2022-12-07T14:06:04;7.80;99.90
8792;DHT22;4432;50.890;4.744;2022-12-07T14:08:30;7.80;99.90
8792;DHT22;4432;50.890;4.744;2022-12-07T14:10:57;7.90;99.90
8792;DHT22;4432;50.890;4.744;2022-12-07T14:13:33;7.90;99.90
8792;DHT22;4432;50.890;4.744;2022-12-07T14:16:01;7.90;99.90
8792;DHT22;4432;50.890;4.744;2022-12-07T14:18:37;7.80;99.90
8792;DHT22;4432;50.890;4.744;2022-12-07T14:21:15;7.70;99.90
8792;DHT22;4432;50.890;4.744;2022-12-07T14:23:41;7.60;99.90
8792;DHT22;4432;50.890;4.744;2022-12-07T14:26:12;7.60;99.90
8792;DHT22;4432;50.890;4.744;2022-12-07T14:28:39;7.50;99.90
8792;DHT22;4432;50.890;4.744;2022-12-07T14:31:12;7.40;99.90
8792;DHT22;4432;50.890;4.744;2022-12-07T14:33:39;7.40;99.90
8792;DHT22;4432;50.890;4.744;2022-12-07T14:36:05;7.40;99.90
8792;DHT22;4432;50.890;4.744;2022-12-07T14:38:31;7.30;99.90
8792;DHT22;4432;50.890;4.744;2022-12-07T14:40:57;7.30;99.90
8792;DHT22;4432;50.890;4.744;2022-12-07T14:43:42;7.30;99.90
8792;DHT22;4432;50.890;4.744;2022-12-07T14:46:09;7.30;99.90
8792;DHT22;4432;50.890;4.744;2022-12-07T14:48:34;7.20;99.90
8792;DHT22;4432;50.890;4.744;2022-12-07T14:51:00;7.00;99.90
8792;DHT22;4432;50.890;4.744;2022-12-07T14:53:39;6.80;99.90
8792;DHT22;4432;50.890;4.744;2022-12-07T14:56:06;6.60;99.90
8792;DHT22;4432;50.890;4.744;2022-12-07T14:58:32;6.50;99.90
8792;DHT22;4432;50.890;4.744;2022-12-07T15:00:58;6.40;99.90
8792;DHT22;4432;50.890;4.744;2022-12-07T15:03:24;6.30;99.90
8792;DHT22;4432;50.890;4.744;2022-12-07T15:05:50;6.20;99.90
8792;DHT22;4432;50.890;4.744;2022-12-07T15:08:16;6.20;99.90
8792;DHT22;4432;50.890;4.744;2022-12-07T15:10:50;6.10;99.90
8792;DHT22;4432;50.890;4.744;2022-12-07T15:13:16;6.10;99.90
8792;DHT22;4432;50.890;4.744;2022-12-07T15:16:00;6.10;99.90
8792;DHT22;4432;50.890;4.744;2022-12-07T15:18:26;6.10;99.90
8792;DHT22;4432;50.890;4.744;2022-12-07T15:20:52;6.10;99.90
8792;DHT22;4432;50.890;4.744;2022-12-07T15:23:18;6.10;99.90
8792;DHT22;4432;50.890;4.744;2022-12-07T15:25:46;6.00;99.90
8792;DHT22;4432;50.890;4.744;2022-12-07T15:28:13;5.90;99.90
8792;DHT22;4432;50.890;4.744;2022-12-07T15:30:41;5.80;99.90
8792;DHT22;4432;50.890;4.744;2022-12-07T15:33:11;5.60;99.90
8792;DHT22;4432;50.890;4.744;2022-12-07T15:35:43;5.50;99.90
8792;DHT22;4432;50.890;4.744;2022-12-07T15:38:09;5.50;99.90
8792;DHT22;4432;50.890;4.744;2022-12-07T15:40:35;5.40;99.90
8792;DHT22;4432;50.890;4.744;2022-12-07T15:43:02;5.30;99.90
8792;DHT22;4432;50.890;4.744;2022-12-07T15:45:27;5.30;99.90
8792;DHT22;4432;50.890;4.744;2022-12-07T15:47:53;5.30;99.90
8792;DHT22;4432;50.890;4.744;2022-12-07T15:50:21;5.30;99.90
8792;DHT22;4432;50.890;4.744;2022-12-07T15:52:47;5.30;99.90
8792;DHT22;4432;50.890;4.744;2022-12-07T15:55:13;5.30;99.90
8792;DHT22;4432;50.890;4.744;2022-12-07T15:57:39;5.30;99.90
8792;DHT22;4432;50.890;4.744;2022-12-07T16:00:07;5.30;99.90
8792;DHT22;4432;50.890;4.744;2022-12-07T16:02:34;5.30;99.90
8792;DHT22;4432;50.890;4.744;2022-12-07T16:05:02;5.30;99.90
8792;DHT22;4432;50.890;4.744;2022-12-07T16:07:28;5.40;99.90
8792;DHT22;4432;50.890;4.744;2022-12-07T16:09:53;5.40;99.90
8792;DHT22;4432;50.890;4.744;2022-12-07T16:12:19;5.40;99.90
8792;DHT22;4432;50.890;4.744;2022-12-07T16:14:45;5.40;99.90
8792;DHT22;4432;50.890;4.744;2022-12-07T16:17:11;5.50;99.90
8792;DHT22;4432;50.890;4.744;2022-12-07T16:19:37;5.40;99.90
8792;DHT22;4432;50.890;4.744;2022-12-07T16:22:04;5.40;99.90
8792;DHT22;4432;50.890;4.744;2022-12-07T16:24:30;5.40;99.90
8792;DHT22;4432;50.890;4.744;2022-12-07T16:26:56;5.50;99.90
8792;DHT22;4432;50.890;4.744;2022-12-07T16:29:23;5.40;99.90
8792;DHT22;4432;50.890;4.744;2022-12-07T16:31:50;5.50;99.90
8792;DHT22;4432;50.890;4.744;2022-12-07T16:34:16;5.50;99.90
8792;DHT22;4432;50.890;4.744;2022-12-07T16:36:42;5.50;99.90
8792;DHT22;4432;50.890;4.744;2022-12-07T16:39:10;5.50;99.90
8792;DHT22;4432;50.890;4.744;2022-12-07T16:41:36;5.50;99.90
8792;DHT22;4432;50.890;4.744;2022-12-07T16:44:04;5.50;99.90
8792;DHT22;4432;50.890;4.744;2022-12-07T16:46:34;5.50;99.90
8792;DHT22;4432;50.890;4.744;2022-12-07T16:49:01;5.50;99.90
8792;DHT22;4432;50.890;4.744;2022-12-07T16:51:27;5.40;99.90
8792;DHT22;4432;50.890;4.744;2022-12-07T16:53:53;5.40;99.90
8792;DHT22;4432;50.890;4.744;2022-12-07T16:56:19;5.40;99.90
8792;DHT22;4432;50.890;4.744;2022-12-07T16:58:46;5.40;99.90
8792;DHT22;4432;50.890;4.744;2022-12-07T17:01:16;5.40;99.90
8792;DHT22;4432;50.890;4.744;2022-12-07T17:03:43;5.40;99.90
8792;DHT22;4432;50.890;4.744;2022-12-07T17:06:38;5.40;99.90
8792;DHT22;4432;50.890;4.744;2022-12-07T17:09:04;5.40;99.90
8792;DHT22;4432;50.890;4.744;2022-12-07T17:11:35;5.50;99.90
8792;DHT22;4432;50.890;4.744;2022-12-07T17:14:01;5.50;99.90
8792;DHT22;4432;50.890;4.744;2022-12-07T17:16:45;5.60;99.90
8792;DHT22;4432;50.890;4.744;2022-12-07T17:19:13;5.60;99.90
8792;DHT22;4432;50.890;4.744;2022-12-07T17:21:39;5.60;99.90
8792;DHT22;4432;50.890;4.744;2022-12-07T17:24:08;5.60;99.90
8792;DHT22;4432;50.890;4.744;2022-12-07T17:26:35;5.60;99.90
8792;DHT22;4432;50.890;4.744;2022-12-07T17:29:03;5.60;99.90
8792;DHT22;4432;50.890;4.744;2022-12-07T17:31:29;5.60;99.90
8792;DHT22;4432;50.890;4.744;2022-12-07T17:33:55;5.60;99.90
8792;DHT22;4432;50.890;4.744;2022-12-07T17:36:23;5.60;99.90
8792;DHT22;4432;50.890;4.744;2022-12-07T17:38:50;5.60;99.90
8792;DHT22;4432;50.890;4.744;2022-12-07T17:41:24;5.60;99.90
8792;DHT22;4432;50.890;4.744;2022-12-07T17:44:11;5.60;99.90
8792;DHT22;4432;50.890;4.744;2022-12-07T17:46:38;5.50;99.90
8792;DHT22;4432;50.890;4.744;2022-12-07T17:49:05;5.50;99.90
8792;DHT22;4432;50.890;4.744;2022-12-07T17:51:32;5.50;99.90
8792;DHT22;4432;50.890;4.744;2022-12-07T17:54:17;5.50;99.90
8792;DHT22;4432;50.890;4.744;2022-12-07T17:56:43;5.50;99.90
8792;DHT22;4432;50.890;4.744;2022-12-07T17:59:09;5.50;99.90
8792;DHT22;4432;50.890;4.744;2022-12-07T18:01:36;5.50;99.90
8792;DHT22;4432;50.890;4.744;2022-12-07T18:04:02;5.50;99.90
8792;DHT22;4432;50.890;4.744;2022-12-07T18:06:28;5.50;99.90
8792;DHT22;4432;50.890;4.744;2022-12-07T18:08:55;5.50;99.90
8792;DHT22;4432;50.890;4.744;2022-12-07T18:11:21;5.50;99.90
8792;DHT22;4432;50.890;4.744;2022-12-07T18:13:47;5.40;99.90
8792;DHT22;4432;50.890;4.744;2022-12-07T18:16:21;5.50;99.90
8792;DHT22;4432;50.890;4.744;2022-12-07T18:18:48;5.40;99.90
8792;DHT22;4432;50.890;4.744;2022-12-07T18:21:21;5.40;99.90
8792;DHT22;4432;50.890;4.744;2022-12-07T18:23:49;5.40;99.90
8792;DHT22;4432;50.890;4.744;2022-12-07T18:26:16;5.40;99.90
8792;DHT22;4432;50.890;4.744;2022-12-07T18:28:45;5.40;99.90
8792;DHT22;4432;50.890;4.744;2022-12-07T18:31:12;5.40;99.90
8792;DHT22;4432;50.890;4.744;2022-12-07T18:33:38;5.40;99.90
8792;DHT22;4432;50.890;4.744;2022-12-07T18:36:04;5.40;99.90
8792;DHT22;4432;50.890;4.744;2022-12-07T18:38:31;5.40;99.90
8792;DHT22;4432;50.890;4.744;2022-12-07T18:40:57;5.30;99.90
8792;DHT22;4432;50.890;4.744;2022-12-07T18:43:23;5.30;99.90
8792;DHT22;4432;50.890;4.744;2022-12-07T18:45:52;5.30;99.90
8792;DHT22;4432;50.890;4.744;2022-12-07T18:48:19;5.20;99.90
8792;DHT22;4432;50.890;4.744;2022-12-07T18:50:46;5.20;99.90
8792;DHT22;4432;50.890;4.744;2022-12-07T18:53:12;5.20;99.90
8792;DHT22;4432;50.890;4.744;2022-12-07T18:55:40;5.20;99.90
8792;DHT22;4432;50.890;4.744;2022-12-07T18:58:06;5.20;99.90
8792;DHT22;4432;50.890;4.744;2022-12-07T19:00:33;5.20;99.90
8792;DHT22;4432;50.890;4.744;2022-12-07T19:02:59;5.10;99.90
8792;DHT22;4432;50.890;4.744;2022-12-07T19:05:26;5.10;99.90